createdAt,value
2023-11-15T00:01:23.404Z,14.68
2023-11-15T00:03:50.420Z,14.83
2023-11-15T00:06:17.634Z,14.55
2023-11-15T00:08:44.509Z,14.69
2023-11-15T00:11:11.371Z,14.73
2023-11-15T00:13:38.296Z,14.54
2023-11-15T00:16:05.863Z,14.38
2023-11-15T00:18:32.606Z,13.38
2023-11-15T00:20:59.594Z,14.43
2023-11-15T00:23:27.699Z,14.31
2023-11-15T00:25:54.565Z,12.60
2023-11-15T00:28:21.469Z,14.00
2023-11-15T00:30:48.276Z,13.99
2023-11-15T00:33:15.206Z,14.44
2023-11-15T00:35:42.104Z,14.69
2023-11-15T00:38:09.246Z,14.79
2023-11-15T00:40:36.991Z,14.82
2023-11-15T00:43:04.882Z,14.59
2023-11-15T00:45:31.969Z,14.57
2023-11-15T00:47:58.765Z,14.46
2023-11-15T00:50:25.854Z,14.00
2023-11-15T00:52:52.543Z,13.82
2023-11-15T00:55:19.252Z,14.12
2023-11-15T00:57:46.800Z,14.33
2023-11-15T01:00:33.948Z,14.17
2023-11-15T01:03:01.049Z,13.85
2023-11-15T01:05:30.189Z,14.12
2023-11-15T01:07:57.195Z,14.13
2023-11-15T01:10:26.176Z,14.16
2023-11-15T01:12:54.675Z,14.33
2023-11-15T01:15:23.182Z,14.77
2023-11-15T01:17:51.757Z,15.00
2023-11-15T01:20:19.096Z,14.93
2023-11-15T01:22:46.811Z,15.23
2023-11-15T01:25:14.862Z,15.43
2023-11-15T01:27:41.602Z,15.28
2023-11-15T01:30:10.009Z,15.61
2023-11-15T01:32:36.906Z,15.34
2023-11-15T01:35:04.087Z,15.43
2023-11-15T01:37:30.722Z,14.57
2023-11-15T01:39:57.498Z,14.47
2023-11-15T01:42:24.137Z,14.52
2023-11-15T01:44:50.847Z,12.88
2023-11-15T01:47:17.609Z,12.57
2023-11-15T01:49:44.450Z,11.60
2023-11-15T01:52:11.136Z,11.44
2023-11-15T01:54:37.910Z,11.12
2023-11-15T01:57:05.104Z,10.89
2023-11-15T01:59:32.141Z,10.82
2023-11-15T02:01:58.900Z,10.44
2023-11-15T02:04:25.565Z,10.95
2023-11-15T02:06:52.948Z,11.44
2023-11-15T02:09:19.664Z,10.84
2023-11-15T02:11:46.442Z,11.41
2023-11-15T02:14:13.141Z,11.04
2023-11-15T02:16:40.094Z,12.44
2023-11-15T02:19:06.950Z,12.46
2023-11-15T02:21:33.620Z,12.57
2023-11-15T02:24:00.572Z,12.20
2023-11-15T02:26:27.388Z,12.82
2023-11-15T02:28:55.245Z,12.08
2023-11-15T02:31:22.143Z,12.72
2023-11-15T02:33:48.797Z,12.84
2023-11-15T02:36:15.564Z,12.83
2023-11-15T02:39:51.060Z,13.51
2023-11-15T02:42:17.781Z,15.36
2023-11-15T02:44:44.464Z,14.72
2023-11-15T02:47:11.201Z,13.10
2023-11-15T02:49:38.525Z,13.48
2023-11-15T02:52:05.627Z,13.35
2023-11-15T02:54:32.312Z,12.44
2023-11-15T02:56:59.057Z,12.96
2023-11-15T02:59:25.760Z,12.96
2023-11-15T03:01:52.653Z,12.51
2023-11-15T03:04:19.429Z,11.91
2023-11-15T03:06:46.170Z,12.92
2023-11-15T03:09:14.781Z,13.33
2023-11-15T03:11:41.561Z,12.67
2023-11-15T03:14:08.254Z,13.02
2023-11-15T03:16:35.200Z,11.71
2023-11-15T03:19:02.304Z,12.79
2023-11-15T03:21:29.489Z,13.13
2023-11-15T03:23:56.324Z,12.39
2023-11-15T03:26:23.007Z,13.27
2023-11-15T03:28:49.835Z,12.99
2023-11-15T03:31:16.487Z,12.23
2023-11-15T03:33:48.593Z,13.37
2023-11-15T03:36:17.054Z,13.60
2023-11-15T03:38:43.948Z,13.93
2023-11-15T03:41:13.736Z,13.59
2023-11-15T03:43:41.227Z,13.52
2023-11-15T03:46:07.986Z,13.86
2023-11-15T03:48:35.036Z,13.92
2023-11-15T03:51:01.822Z,13.51
2023-11-15T03:53:28.630Z,13.98
2023-11-15T03:55:55.394Z,14.29
2023-11-15T03:58:22.181Z,14.17
2023-11-15T04:00:49.401Z,14.27
2023-11-15T04:03:17.738Z,14.46
2023-11-15T04:05:45.875Z,14.26
2023-11-15T04:08:13.865Z,13.44
2023-11-15T04:10:40.649Z,13.48
2023-11-15T04:13:07.364Z,13.51
2023-11-15T04:15:34.087Z,13.24
2023-11-15T04:18:00.816Z,12.86
2023-11-15T04:20:28.542Z,13.06
2023-11-15T04:22:55.246Z,12.94
2023-11-15T04:25:21.875Z,12.20
2023-11-15T04:27:48.686Z,12.60
2023-11-15T04:30:17.121Z,13.26
2023-11-15T04:32:45.400Z,12.86
2023-11-15T04:35:15.997Z,12.17
2023-11-15T04:37:42.699Z,11.04
2023-11-15T04:40:11.478Z,11.32
2023-11-15T04:42:38.478Z,12.51
2023-11-15T04:45:06.508Z,12.11
2023-11-15T04:47:33.747Z,10.99
2023-11-15T04:50:02.299Z,11.96
2023-11-15T04:52:29.235Z,13.22
2023-11-15T04:54:55.943Z,12.68
2023-11-15T04:57:26.339Z,12.22
2023-11-15T04:59:58.814Z,12.59
2023-11-15T05:02:28.868Z,13.63
2023-11-15T05:04:56.381Z,13.61
2023-11-15T05:07:26.390Z,13.04
2023-11-15T05:09:53.059Z,13.62
2023-11-15T05:12:19.773Z,13.92
2023-11-15T05:14:46.685Z,12.75
2023-11-15T05:17:13.616Z,12.81
2023-11-15T05:19:40.521Z,13.31
2023-11-15T05:22:07.209Z,12.52
2023-11-15T05:24:38.675Z,11.95
2023-11-15T05:27:05.493Z,12.30
2023-11-15T05:29:35.623Z,13.13
2023-11-15T05:32:02.295Z,13.89
2023-11-15T05:34:29.496Z,13.10
2023-11-15T05:36:56.299Z,13.16
2023-11-15T05:39:23.670Z,13.46
2023-11-15T05:44:32.456Z,12.37
2023-11-15T05:47:03.654Z,13.46
2023-11-15T05:49:39.278Z,13.43
2023-11-15T05:52:06.560Z,13.17
2023-11-15T05:54:34.995Z,13.20
2023-11-15T05:57:02.378Z,14.03
2023-11-15T05:59:29.165Z,14.34
2023-11-15T06:02:14.709Z,13.85
2023-11-15T06:04:41.530Z,14.15
2023-11-15T06:07:08.268Z,13.61
2023-11-15T06:09:34.922Z,12.92
2023-11-15T06:12:02.399Z,13.68
2023-11-15T06:14:29.097Z,13.69
2023-11-15T06:16:55.716Z,14.17
2023-11-15T06:19:24.366Z,14.71
2023-11-15T06:21:51.163Z,15.03
2023-11-15T06:24:17.847Z,15.25
2023-11-15T06:26:45.592Z,15.35
2023-11-15T06:29:12.564Z,15.37
2023-11-15T06:31:39.463Z,14.30
2023-11-15T06:34:07.030Z,14.78
2023-11-15T06:36:36.202Z,14.43
2023-11-15T06:39:07.309Z,14.25
2023-11-15T06:41:35.866Z,14.66
2023-11-15T06:44:04.775Z,15.12
2023-11-15T06:46:31.459Z,15.33
2023-11-15T06:48:58.155Z,15.86
2023-11-15T06:51:25.084Z,15.64
2023-11-15T06:53:54.576Z,16.03
2023-11-15T06:56:21.562Z,15.35
2023-11-15T06:58:48.363Z,15.96
2023-11-15T07:01:15.073Z,16.26
2023-11-15T07:03:45.027Z,16.36
2023-11-15T07:06:12.003Z,16.51
2023-11-15T07:08:38.819Z,15.29
2023-11-15T07:11:09.292Z,15.51
2023-11-15T07:13:36.253Z,16.11
2023-11-15T07:16:05.513Z,16.66
2023-11-15T07:18:35.745Z,16.87
2023-11-15T07:21:02.476Z,15.32
2023-11-15T07:23:29.318Z,16.27
2023-11-15T07:25:56.615Z,16.29
2023-11-15T07:28:24.760Z,17.10
2023-11-15T07:30:52.277Z,16.81
2023-11-15T07:33:22.583Z,16.94
2023-11-15T07:35:50.188Z,17.27
2023-11-15T07:38:17.339Z,17.09
2023-11-15T07:40:44.080Z,16.49
2023-11-15T07:43:11.994Z,16.66
2023-11-15T07:45:39.895Z,17.07
2023-11-15T07:48:11.650Z,17.18
2023-11-15T07:50:38.906Z,17.49
2023-11-15T07:53:05.729Z,16.98
2023-11-15T07:55:33.220Z,17.38
2023-11-15T07:57:59.940Z,16.63
2023-11-15T08:00:26.670Z,15.97
2023-11-15T08:02:54.649Z,17.00
2023-11-15T08:05:21.849Z,17.49
2023-11-15T08:07:49.814Z,17.94
2023-11-15T08:10:16.872Z,17.82
2023-11-15T08:12:49.483Z,17.66
2023-11-15T08:15:17.624Z,16.60
2023-11-15T08:17:48.191Z,17.39
2023-11-15T08:20:16.030Z,17.13
2023-11-15T08:22:43.221Z,17.29
2023-11-15T08:25:11.055Z,17.21
2023-11-15T08:27:39.904Z,17.39
2023-11-15T08:30:11.598Z,17.98
2023-11-15T08:32:38.642Z,17.77
2023-11-15T08:35:06.883Z,16.90
2023-11-15T08:37:33.834Z,17.27
2023-11-15T08:40:03.636Z,17.78
2023-11-15T08:42:32.069Z,17.79
2023-11-15T08:44:58.780Z,17.83
2023-11-15T08:47:26.449Z,17.60
2023-11-15T08:49:54.903Z,17.56
2023-11-15T08:52:25.003Z,17.42
2023-11-15T08:54:52.357Z,17.18
2023-11-15T08:57:19.183Z,17.37
2023-11-15T08:59:46.776Z,17.52
2023-11-15T09:02:16.415Z,17.88
2023-11-15T09:04:43.478Z,16.70
2023-11-15T09:07:12.049Z,16.64
2023-11-15T09:09:43.069Z,17.33
2023-11-15T09:12:11.544Z,17.36
2023-11-15T09:14:40.040Z,17.65
2023-11-15T09:17:14.022Z,17.71
2023-11-15T09:19:40.847Z,17.52
2023-11-15T09:22:07.723Z,17.64
2023-11-15T09:24:36.890Z,17.72
2023-11-15T09:27:03.738Z,16.08
2023-11-15T09:29:30.446Z,16.97
2023-11-15T09:31:57.281Z,16.08
2023-11-15T09:34:26.741Z,15.78
2023-11-15T09:37:03.494Z,16.30
2023-11-15T09:39:31.643Z,15.96
2023-11-15T09:41:59.001Z,16.36
2023-11-15T09:44:27.259Z,15.79
2023-11-15T09:46:55.547Z,15.88
2023-11-15T09:49:25.828Z,16.05
2023-11-15T09:51:54.021Z,16.15
2023-11-15T09:54:24.838Z,16.09
2023-11-15T09:56:51.837Z,15.87
2023-11-15T09:59:19.573Z,15.68
2023-11-15T10:01:49.712Z,15.66
2023-11-15T10:04:27.362Z,15.08
2023-11-15T10:07:00.764Z,15.23
2023-11-15T10:09:44.039Z,15.33
2023-11-15T10:12:11.741Z,15.34
2023-11-15T10:15:06.507Z,15.24
2023-11-15T10:17:41.599Z,15.15
2023-11-15T10:20:23.299Z,15.26
2023-11-15T10:22:52.068Z,15.36
2023-11-15T10:25:19.386Z,15.32
2023-11-15T10:27:46.216Z,14.83
2023-11-15T10:30:17.333Z,14.47
2023-11-15T10:32:49.563Z,14.66
2023-11-15T10:35:31.202Z,15.41
2023-11-15T10:37:58.659Z,14.70
2023-11-15T10:40:30.658Z,15.12
2023-11-15T10:43:00.138Z,15.03
2023-11-15T10:45:31.444Z,15.15
2023-11-15T10:48:06.891Z,15.03
2023-11-15T10:50:35.966Z,15.59
2023-11-15T10:53:03.714Z,15.71
2023-11-15T10:55:32.538Z,15.47
2023-11-15T10:58:04.296Z,15.27
2023-11-15T11:00:32.757Z,15.22
2023-11-15T11:02:59.783Z,15.29
2023-11-15T11:05:50.156Z,15.04
2023-11-15T11:08:36.171Z,14.81
2023-11-15T11:11:12.250Z,14.69
2023-11-15T11:13:42.046Z,14.55
2023-11-15T11:16:34.906Z,15.37
2023-11-15T11:19:23.492Z,15.64
2023-11-15T11:22:13.515Z,15.86
2023-11-15T11:24:47.463Z,15.97
2023-11-15T11:27:17.623Z,16.36
2023-11-15T11:29:50.473Z,15.45
2023-11-15T11:32:27.906Z,15.64
2023-11-15T11:35:07.893Z,15.70
2023-11-15T11:37:48.764Z,15.60
2023-11-15T11:40:16.858Z,15.88
2023-11-15T11:42:45.444Z,15.72
2023-11-15T11:45:14.095Z,15.85
2023-11-15T11:47:47.614Z,15.57
2023-11-15T11:50:34.406Z,15.75
2023-11-15T11:53:01.508Z,16.04
2023-11-15T11:55:32.840Z,16.04
2023-11-15T11:58:03.940Z,15.65
2023-11-15T12:00:30.787Z,16.14
2023-11-15T12:03:01.330Z,16.42
2023-11-15T12:05:33.622Z,16.19
2023-11-15T12:08:02.773Z,16.40
2023-11-15T12:10:29.922Z,16.50
2023-11-15T12:13:00.643Z,16.50
2023-11-15T12:15:28.563Z,17.11
2023-11-15T12:17:58.397Z,16.87
2023-11-15T12:20:51.425Z,16.70
2023-11-15T12:23:18.627Z,16.86
2023-11-15T12:25:48.946Z,16.97
2023-11-15T12:28:27.589Z,17.06
2023-11-15T12:30:55.955Z,16.92
2023-11-15T12:33:23.989Z,16.59
2023-11-15T12:35:54.316Z,16.54
2023-11-15T12:38:21.442Z,16.13
2023-11-15T12:40:48.870Z,15.67
2023-11-15T12:43:20.814Z,15.72
2023-11-15T12:45:48.138Z,16.13
2023-11-15T12:48:16.181Z,16.39
2023-11-15T12:50:45.202Z,16.16
2023-11-15T12:53:15.892Z,15.98
2023-11-15T12:55:50.778Z,15.37
2023-11-15T12:58:40.794Z,15.58
2023-11-15T13:01:09.157Z,15.46
2023-11-15T13:03:39.887Z,15.18
2023-11-15T13:06:14.485Z,15.88
2023-11-15T13:08:44.693Z,15.43
2023-11-15T13:11:15.951Z,15.39
2023-11-15T13:13:45.691Z,15.75
2023-11-15T13:16:16.427Z,16.15
2023-11-15T13:18:46.135Z,15.89
2023-11-15T13:21:14.497Z,16.38
2023-11-15T13:23:46.573Z,16.34
2023-11-15T13:26:16.951Z,16.59
2023-11-15T13:28:45.463Z,16.44
2023-11-15T13:31:16.268Z,16.49
2023-11-15T13:33:46.544Z,16.48
2023-11-15T13:36:17.211Z,16.62
2023-11-15T13:38:44.117Z,16.44
2023-11-15T13:41:14.350Z,16.40
2023-11-15T13:43:41.962Z,16.31
2023-11-15T13:46:09.812Z,16.60
2023-11-15T13:48:37.496Z,16.16
2023-11-15T13:51:08.023Z,16.50
2023-11-15T13:53:37.937Z,15.94
2023-11-15T13:56:06.391Z,16.42
2023-11-15T13:58:33.214Z,15.75
2023-11-15T14:01:00.329Z,16.17
2023-11-15T14:03:30.245Z,16.21
2023-11-15T14:06:01.333Z,15.81
2023-11-15T14:08:47.496Z,15.64
2023-11-15T14:11:23.500Z,15.41
2023-11-15T14:13:50.286Z,15.37
2023-11-15T14:16:17.162Z,15.51
2023-11-15T14:18:48.762Z,15.17
2023-11-15T14:21:15.857Z,15.74
2023-11-15T14:23:42.642Z,15.72
2023-11-15T14:26:09.884Z,15.69
2023-11-15T14:28:36.951Z,15.72
2023-11-15T14:31:05.391Z,15.61
2023-11-15T14:33:37.897Z,15.09
2023-11-15T14:36:07.382Z,15.44
2023-11-15T14:38:34.056Z,15.76
2023-11-15T14:41:28.138Z,15.52
2023-11-15T14:43:55.205Z,15.46
2023-11-15T14:46:26.744Z,14.96
2023-11-15T14:48:53.922Z,15.06
2023-11-15T14:51:21.638Z,15.37
2023-11-15T14:53:56.685Z,15.37
2023-11-15T14:56:24.288Z,15.26
2023-11-15T14:58:54.699Z,15.15
2023-11-15T15:01:38.381Z,15.30
2023-11-15T15:04:50.572Z,15.45
2023-11-15T15:07:17.558Z,15.35
2023-11-15T15:09:48.395Z,15.36
2023-11-15T15:12:15.707Z,15.91
2023-11-15T15:14:42.970Z,15.96
2023-11-15T15:17:21.261Z,15.94
2023-11-15T15:19:52.728Z,16.06
2023-11-15T15:22:19.481Z,15.93
2023-11-15T15:24:54.024Z,15.47
2023-11-15T15:27:28.909Z,15.69
2023-11-15T15:30:02.576Z,15.25
2023-11-15T15:32:29.461Z,15.19
2023-11-15T15:35:02.049Z,15.11
2023-11-15T15:37:29.488Z,14.96
2023-11-15T15:40:01.299Z,15.09
2023-11-15T15:42:28.504Z,15.45
2023-11-15T15:44:59.408Z,15.35
2023-11-15T15:47:35.620Z,14.91
2023-11-15T15:50:02.300Z,15.34
2023-11-15T15:52:29.011Z,15.41
2023-11-15T15:55:00.675Z,15.30
2023-11-15T15:57:27.800Z,14.87
2023-11-15T15:59:54.495Z,15.07
2023-11-15T16:02:26.995Z,15.24
2023-11-15T16:04:56.111Z,15.51
2023-11-15T16:07:22.785Z,14.75
2023-11-15T16:09:49.402Z,14.87
2023-11-15T16:12:16.128Z,14.55
2023-11-15T16:14:42.873Z,14.75
2023-11-15T16:17:09.638Z,14.74
2023-11-15T16:19:37.266Z,15.36
2023-11-15T16:22:04.140Z,15.75
2023-11-15T16:24:33.364Z,15.37
2023-11-15T16:27:00.275Z,15.58
2023-11-15T16:29:26.967Z,15.36
2023-11-15T16:31:53.609Z,15.83
2023-11-15T16:34:21.646Z,15.91
2023-11-15T16:36:48.376Z,15.40
2023-11-15T16:39:15.190Z,15.50
2023-11-15T16:41:51.450Z,15.37
2023-11-15T16:44:19.984Z,15.88
2023-11-15T16:46:48.494Z,15.29
2023-11-15T16:49:16.467Z,15.54
2023-11-15T16:51:44.168Z,15.15
2023-11-15T16:54:11.206Z,15.35
2023-11-15T16:56:37.962Z,15.42
2023-11-15T16:59:04.773Z,15.80
2023-11-15T17:01:35.203Z,15.61
2023-11-15T17:04:02.759Z,15.51
2023-11-15T17:06:29.819Z,15.36
2023-11-15T17:08:56.585Z,15.60
2023-11-15T17:11:24.705Z,15.55
2023-11-15T17:13:51.450Z,15.95
2023-11-15T17:16:19.746Z,15.56
2023-11-15T17:18:50.050Z,15.77
2023-11-15T17:21:17.046Z,15.51
2023-11-15T17:23:45.239Z,15.83
2023-11-15T17:26:13.601Z,15.98
2023-11-15T17:28:44.267Z,15.67
2023-11-15T17:31:12.209Z,15.33
2023-11-15T17:33:44.239Z,15.52
2023-11-15T17:36:11.144Z,15.51
2023-11-15T17:38:37.862Z,14.79
2023-11-15T17:41:05.388Z,14.73
2023-11-15T17:43:37.248Z,14.69
2023-11-15T17:46:04.249Z,15.11
2023-11-15T17:48:32.065Z,14.20
2023-11-15T17:51:01.110Z,14.29
2023-11-15T17:56:33.297Z,15.37
2023-11-15T17:59:00.608Z,16.05
2023-11-15T18:01:36.035Z,15.38
2023-11-15T18:04:03.204Z,15.43
2023-11-15T18:06:30.149Z,15.61
2023-11-15T18:08:57.574Z,16.08
2023-11-15T18:11:25.101Z,16.21
2023-11-15T18:13:52.943Z,15.40
2023-11-15T18:16:20.777Z,15.19
2023-11-15T18:18:47.601Z,14.35
2023-11-15T18:21:21.066Z,14.63
2023-11-15T18:23:50.710Z,14.24
2023-11-15T18:26:24.140Z,14.36
2023-11-15T18:28:50.854Z,14.15
2023-11-15T18:31:17.642Z,14.06
2023-11-15T18:33:44.549Z,14.14
2023-11-15T18:36:12.049Z,14.15
2023-11-15T18:38:38.863Z,14.71
2023-11-15T18:41:06.063Z,14.83
2023-11-15T18:43:32.766Z,14.42
2023-11-15T18:45:59.668Z,14.18
2023-11-15T18:48:27.302Z,14.10
2023-11-15T18:50:54.116Z,14.53
2023-11-15T18:53:20.916Z,14.55
2023-11-15T18:55:47.611Z,14.00
2023-11-15T18:58:14.423Z,13.29
2023-11-15T19:00:42.188Z,13.97
2023-11-15T19:03:09.104Z,13.72
2023-11-15T19:05:36.070Z,13.64
2023-11-15T19:08:03.764Z,13.51
2023-11-15T19:10:33.505Z,14.39
2023-11-15T19:13:00.427Z,13.41
2023-11-15T19:15:27.482Z,14.35
2023-11-15T19:17:57.379Z,13.34
2023-11-15T19:20:30.163Z,14.51
2023-11-15T19:22:57.050Z,14.82
2023-11-15T19:25:24.163Z,14.09
2023-11-15T19:27:50.897Z,14.00
2023-11-15T19:30:18.715Z,14.58
2023-11-15T19:32:45.833Z,14.25
2023-11-15T19:35:16.331Z,14.61
2023-11-15T19:37:44.556Z,14.41
2023-11-15T19:40:12.644Z,13.74
2023-11-15T19:42:39.935Z,14.00
2023-11-15T19:45:08.934Z,14.21
2023-11-15T19:47:36.249Z,14.29
2023-11-15T19:50:04.040Z,14.30
2023-11-15T19:52:30.835Z,13.83
2023-11-15T19:54:58.858Z,13.69
2023-11-15T19:57:27.918Z,13.88
2023-11-15T19:59:58.745Z,14.23
2023-11-15T20:02:31.583Z,14.05
2023-11-15T20:05:05.538Z,14.50
2023-11-15T20:07:33.460Z,13.76
2023-11-15T20:10:00.215Z,14.30
2023-11-15T20:12:29.094Z,14.03
2023-11-15T20:14:55.793Z,14.05
2023-11-15T20:17:22.759Z,14.21
2023-11-15T20:19:49.506Z,14.11
2023-11-15T20:22:16.241Z,14.28
2023-11-15T20:24:42.910Z,14.40
2023-11-15T20:27:09.664Z,14.18
2023-11-15T20:29:37.414Z,13.89
2023-11-15T20:32:04.452Z,14.43
2023-11-15T20:34:31.185Z,13.87
2023-11-15T20:37:01.126Z,13.44
2023-11-15T20:39:31.170Z,13.19
2023-11-15T20:41:59.567Z,13.70
2023-11-15T20:44:26.290Z,14.04
2023-11-15T20:46:53.075Z,14.10
2023-11-15T20:49:20.109Z,14.33
2023-11-15T20:51:50.238Z,13.72
2023-11-15T20:54:18.983Z,13.61
2023-11-15T20:56:46.116Z,13.24
2023-11-15T20:59:13.548Z,12.76
2023-11-15T21:01:41.024Z,12.93
2023-11-15T21:04:14.141Z,12.57
2023-11-15T21:06:41.037Z,12.90
2023-11-15T21:09:10.856Z,13.38
2023-11-15T21:11:40.284Z,13.37
2023-11-15T21:14:08.997Z,13.24
2023-11-15T21:19:46.796Z,13.81
2023-11-15T21:22:13.468Z,14.16
2023-11-15T21:24:42.419Z,14.20
2023-11-15T21:27:16.126Z,13.69
2023-11-15T21:29:42.841Z,13.40
2023-11-15T21:32:11.366Z,13.49
2023-11-15T21:34:38.409Z,13.70
2023-11-15T21:37:13.333Z,13.03
2023-11-15T21:39:44.847Z,12.93
2023-11-15T21:42:12.421Z,13.00
2023-11-15T21:44:39.206Z,12.97
2023-11-15T21:47:05.886Z,12.25
2023-11-15T21:49:32.555Z,13.29
2023-11-15T21:51:59.199Z,12.35
2023-11-15T21:54:25.999Z,12.66
2023-11-15T21:56:52.697Z,13.18
2023-11-15T21:59:20.096Z,13.39
2023-11-15T22:01:46.981Z,12.27
2023-11-15T22:04:14.306Z,12.98
2023-11-15T22:06:46.615Z,12.50
2023-11-15T22:09:20.076Z,12.04
2023-11-15T22:11:48.447Z,11.92
2023-11-15T22:14:18.060Z,12.06
2023-11-15T22:16:45.764Z,12.67
2023-11-15T22:19:12.463Z,13.21
2023-11-15T22:21:39.426Z,13.36
2023-11-15T22:24:06.495Z,12.92
2023-11-15T22:26:33.199Z,13.09
2023-11-15T22:28:59.852Z,13.56
2023-11-15T22:31:27.427Z,13.51
2023-11-15T22:33:54.682Z,14.04
2023-11-15T22:36:21.558Z,14.14
2023-11-15T22:38:50.397Z,13.90
2023-11-15T22:41:18.026Z,13.51
2023-11-15T22:43:44.923Z,13.89
2023-11-15T22:46:11.612Z,14.27
2023-11-15T22:48:38.485Z,13.77
2023-11-15T22:51:05.648Z,13.40
2023-11-15T22:53:32.332Z,14.15
2023-11-15T22:55:58.961Z,14.04
2023-11-15T22:58:25.688Z,13.80
2023-11-15T23:00:54.799Z,13.27
2023-11-15T23:03:21.925Z,13.11
2023-11-15T23:05:49.927Z,13.69
2023-11-15T23:08:18.225Z,13.93
2023-11-15T23:10:45.013Z,13.22
2023-11-15T23:13:11.674Z,12.98
2023-11-15T23:15:39.445Z,13.47
2023-11-15T23:18:06.372Z,13.73
2023-11-15T23:20:37.109Z,12.89
2023-11-15T23:23:05.707Z,13.87
2023-11-15T23:25:34.369Z,14.09
2023-11-15T23:28:02.347Z,13.41
2023-11-15T23:30:29.196Z,13.52
2023-11-15T23:32:56.216Z,13.92
2023-11-15T23:35:23.397Z,12.93
2023-11-15T23:37:50.674Z,13.03
2023-11-15T23:40:19.144Z,13.30
2023-11-15T23:42:47.541Z,13.05
2023-11-15T23:45:15.848Z,13.27
2023-11-15T23:47:43.223Z,13.20
2023-11-15T23:50:10.726Z,12.74
2023-11-15T23:52:38.012Z,13.04
2023-11-15T23:55:05.587Z,13.44
2023-11-15T23:57:33.719Z,13.92
